createdAt,value
2018-02-15T00:00:08.064Z,25.93
2018-02-15T00:02:35.456Z,26.47
2018-02-15T00:05:02.850Z,26.53
2018-02-15T00:07:30.264Z,27.40
2018-02-15T00:09:58.187Z,25.60
2018-02-15T00:12:25.782Z,27.43
2018-02-15T00:14:53.150Z,27.10
2018-02-15T00:17:20.611Z,26.13
2018-02-15T00:19:47.990Z,26.80
2018-02-15T00:22:15.342Z,27.00
2018-02-15T00:24:42.737Z,27.33
2018-02-15T00:27:10.092Z,26.00
2018-02-15T00:29:37.467Z,25.27
2018-02-15T00:32:04.877Z,27.23
2018-02-15T00:34:33.116Z,26.70
2018-02-15T00:37:00.477Z,27.40
2018-02-15T00:39:27.878Z,28.10
2018-02-15T00:41:55.341Z,25.57
2018-02-15T00:44:22.709Z,25.23
2018-02-15T00:46:50.908Z,27.40
2018-02-15T00:49:18.297Z,26.20
2018-02-15T00:51:45.704Z,26.60
2018-02-15T00:54:13.064Z,29.23
2018-02-15T00:56:40.452Z,25.07
2018-02-15T00:59:07.861Z,27.63
2018-02-15T01:01:35.212Z,25.10
2018-02-15T01:04:02.565Z,27.80
2018-02-15T01:06:29.956Z,27.97
2018-02-15T01:08:57.325Z,29.00
2018-02-15T01:11:24.732Z,27.10
2018-02-15T01:13:52.102Z,29.77
2018-02-15T01:16:19.496Z,28.27
2018-02-15T01:18:46.896Z,29.00
2018-02-15T01:21:14.264Z,26.27
2018-02-15T01:23:41.658Z,28.47
2018-02-15T01:26:09.082Z,28.83
2018-02-15T01:28:36.533Z,29.53
2018-02-15T01:31:04.505Z,30.80
2018-02-15T01:33:31.917Z,29.87
2018-02-15T01:35:59.338Z,28.33
2018-02-15T01:38:26.725Z,29.37
2018-02-15T01:40:54.125Z,29.67
2018-02-15T01:43:21.497Z,31.80
2018-02-15T01:45:48.900Z,29.60
2018-02-15T01:48:16.260Z,29.93
2018-02-15T01:50:43.633Z,30.03
2018-02-15T01:53:11.050Z,30.93
2018-02-15T01:55:38.413Z,31.10
2018-02-15T01:58:05.797Z,30.37
2018-02-15T02:00:33.212Z,31.47
2018-02-15T02:03:00.580Z,31.90
2018-02-15T02:05:27.960Z,29.70
2018-02-15T02:07:55.390Z,32.67
2018-02-15T02:10:22.752Z,28.80
2018-02-15T02:12:50.145Z,31.03
2018-02-15T02:15:17.510Z,32.17
2018-02-15T02:17:44.881Z,29.80
2018-02-15T02:20:12.274Z,29.67
2018-02-15T02:22:39.648Z,27.33
2018-02-15T02:25:07.042Z,29.23
2018-02-15T02:27:34.437Z,28.37
2018-02-15T02:30:01.852Z,28.07
2018-02-15T02:32:29.256Z,26.10
2018-02-15T02:34:56.621Z,28.60
2018-02-15T02:37:24.018Z,25.40
2018-02-15T02:39:51.408Z,26.13
2018-02-15T02:42:18.774Z,27.80
2018-02-15T02:44:46.156Z,26.67
2018-02-15T02:47:13.549Z,25.33
2018-02-15T02:49:40.969Z,27.90
2018-02-15T02:52:08.325Z,25.10
2018-02-15T02:54:35.688Z,25.63
2018-02-15T02:57:03.082Z,24.10
2018-02-15T02:59:30.437Z,25.10
2018-02-15T03:01:57.825Z,24.70
2018-02-15T03:04:25.222Z,27.63
2018-02-15T03:06:52.634Z,25.20
2018-02-15T03:09:20.035Z,25.50
2018-02-15T03:11:47.401Z,25.20
2018-02-15T03:14:14.766Z,24.87
2018-02-15T03:16:42.165Z,24.27
2018-02-15T03:19:09.580Z,25.37
2018-02-15T03:21:36.946Z,26.20
2018-02-15T03:24:04.300Z,25.77
2018-02-15T03:26:31.693Z,26.57
2018-02-15T03:28:59.062Z,25.03
2018-02-15T03:31:26.462Z,25.50
2018-02-15T03:33:53.826Z,26.70
2018-02-15T03:36:21.188Z,25.93
2018-02-15T03:38:48.579Z,24.00
2018-02-15T03:41:15.928Z,25.47
2018-02-15T03:43:43.345Z,24.80
2018-02-15T03:46:10.758Z,29.00
2018-02-15T03:48:38.121Z,26.37
2018-02-15T03:51:05.513Z,26.40
2018-02-15T03:53:32.882Z,26.80
2018-02-15T03:56:00.252Z,24.83
2018-02-15T03:58:27.642Z,26.70
2018-02-15T04:00:55.033Z,25.03
2018-02-15T04:03:22.397Z,26.10
2018-02-15T04:05:49.825Z,27.20
2018-02-15T04:08:17.190Z,27.83
2018-02-15T04:10:44.554Z,25.97
2018-02-15T04:13:11.952Z,26.03
2018-02-15T04:15:39.318Z,26.80
2018-02-15T04:18:06.689Z,28.10
2018-02-15T04:20:34.095Z,29.40
2018-02-15T04:23:01.499Z,29.37
2018-02-15T04:25:28.857Z,30.27
2018-02-15T04:27:56.265Z,29.40
2018-02-15T04:30:23.633Z,29.00
2018-02-15T04:32:50.998Z,26.80
2018-02-15T04:35:18.392Z,26.40
2018-02-15T04:37:45.783Z,27.93
2018-02-15T04:40:13.193Z,26.50
2018-02-15T04:42:40.553Z,27.83
2018-02-15T04:45:07.929Z,26.40
2018-02-15T04:47:35.421Z,27.50
2018-02-15T04:50:03.291Z,28.90
2018-02-15T04:52:30.694Z,26.93
2018-02-15T04:54:58.101Z,27.00
2018-02-15T04:57:25.472Z,28.30
2018-02-15T04:59:52.836Z,26.93
2018-02-15T05:02:20.222Z,26.20
2018-02-15T05:04:47.609Z,26.73
2018-02-15T05:07:15.009Z,25.13
2018-02-15T05:09:42.366Z,24.70
2018-02-15T05:12:09.724Z,27.50
2018-02-15T05:14:37.117Z,26.27
2018-02-15T05:17:04.478Z,25.20
2018-02-15T05:19:31.829Z,26.07
2018-02-15T05:21:59.231Z,25.50
2018-02-15T05:24:26.593Z,24.67
2018-02-15T05:26:53.977Z,25.47
2018-02-15T05:29:21.349Z,24.10
2018-02-15T05:31:48.745Z,25.67
2018-02-15T05:34:16.109Z,24.83
2018-02-15T05:36:43.463Z,25.23
2018-02-15T05:39:10.860Z,25.23
2018-02-15T05:41:38.262Z,25.90
2018-02-15T05:44:05.620Z,25.10
2018-02-15T05:46:33.002Z,23.80
2018-02-15T05:49:00.405Z,24.77
2018-02-15T05:51:27.765Z,23.90
2018-02-15T05:53:55.809Z,24.80
2018-02-15T05:56:23.213Z,24.07
2018-02-15T05:58:50.577Z,24.53
2018-02-15T06:01:17.937Z,24.10
2018-02-15T06:03:45.329Z,23.90
2018-02-15T06:06:12.721Z,23.27
2018-02-15T06:08:40.286Z,22.80
2018-02-15T06:11:07.711Z,22.67
2018-02-15T06:13:36.336Z,24.13
2018-02-15T06:16:03.726Z,23.20
2018-02-15T06:18:31.142Z,21.67
2018-02-15T06:20:58.546Z,23.83
2018-02-15T06:23:25.958Z,24.27
2018-02-15T06:25:53.349Z,24.10
2018-02-15T06:28:20.841Z,26.07
2018-02-15T06:30:48.238Z,26.37
2018-02-15T06:33:15.642Z,23.27
2018-02-15T06:35:43.073Z,25.30
2018-02-15T06:38:10.496Z,24.10
2018-02-15T06:40:37.886Z,23.37
2018-02-15T06:43:05.310Z,24.60
2018-02-15T06:45:32.745Z,25.93
2018-02-15T06:48:00.166Z,24.57
2018-02-15T06:50:27.553Z,25.83
2018-02-15T06:52:54.989Z,27.47
2018-02-15T06:55:22.381Z,24.00
2018-02-15T06:57:49.809Z,26.07
2018-02-15T07:00:17.227Z,24.53
2018-02-15T07:02:44.613Z,25.40
2018-02-15T07:05:12.042Z,25.57
2018-02-15T07:07:39.450Z,23.47
2018-02-15T07:10:06.854Z,24.40
2018-02-15T07:12:34.266Z,23.40
2018-02-15T07:15:01.766Z,25.47
2018-02-15T07:17:29.279Z,23.87
2018-02-15T07:19:56.742Z,23.17
2018-02-15T07:22:24.131Z,23.93
2018-02-15T07:24:51.557Z,23.70
2018-02-15T07:27:19.024Z,24.10
2018-02-15T07:29:46.461Z,23.63
2018-02-15T07:32:13.850Z,25.07
2018-02-15T07:34:41.244Z,23.50
2018-02-15T07:37:08.675Z,23.90
2018-02-15T07:39:36.070Z,24.37
2018-02-15T07:42:03.459Z,22.80
2018-02-15T07:44:30.891Z,24.50
2018-02-15T07:46:58.287Z,23.63
2018-02-15T07:49:25.771Z,23.70
2018-02-15T07:51:53.214Z,22.77
2018-02-15T07:54:20.640Z,22.07
2018-02-15T07:56:48.038Z,24.10
2018-02-15T07:59:15.482Z,23.90
2018-02-15T08:01:42.870Z,23.13
2018-02-15T08:04:10.258Z,23.80
2018-02-15T08:06:37.749Z,25.03
2018-02-15T08:09:05.179Z,23.93
2018-02-15T08:11:32.591Z,23.27
2018-02-15T08:14:00.031Z,24.23
2018-02-15T08:16:27.478Z,22.80
2018-02-15T08:18:54.889Z,23.33
2018-02-15T08:21:22.327Z,23.00
2018-02-15T08:23:49.715Z,25.17
2018-02-15T08:26:17.142Z,22.70
2018-02-15T08:28:44.565Z,22.20
2018-02-15T08:31:11.983Z,23.83
2018-02-15T08:33:39.470Z,24.23
2018-02-15T08:36:06.890Z,24.20
2018-02-15T08:38:34.355Z,24.30
2018-02-15T08:41:01.770Z,23.90
2018-02-15T08:43:29.297Z,22.50
2018-02-15T08:45:56.688Z,23.30
2018-02-15T08:48:24.079Z,23.70
2018-02-15T08:50:51.510Z,23.70
2018-02-15T08:53:18.921Z,23.40
2018-02-15T08:55:46.305Z,21.40
2018-02-15T08:58:13.806Z,23.03
2018-02-15T09:00:41.234Z,21.20
2018-02-15T09:03:08.691Z,23.67
2018-02-15T09:05:36.129Z,21.80
2018-02-15T09:08:03.517Z,21.13
2018-02-15T09:10:30.902Z,20.63
2018-02-15T09:12:58.318Z,23.30
2018-02-15T09:15:25.755Z,22.53
2018-02-15T09:17:53.154Z,21.10
2018-02-15T09:20:20.550Z,20.27
2018-02-15T09:22:47.982Z,19.20
2018-02-15T09:25:15.389Z,20.13
2018-02-15T09:27:42.777Z,20.00
2018-02-15T09:30:10.214Z,19.67
2018-02-15T09:32:37.630Z,19.23
2018-02-15T09:35:05.018Z,19.63
2018-02-15T09:37:32.446Z,20.60
2018-02-15T09:39:59.838Z,19.00
2018-02-15T09:42:27.346Z,20.87
2018-02-15T09:44:54.801Z,19.13
2018-02-15T09:47:22.233Z,20.30
2018-02-15T09:49:49.622Z,17.90
2018-02-15T09:52:17.049Z,18.70
2018-02-15T09:54:44.497Z,18.87
2018-02-15T09:57:11.986Z,18.70
2018-02-15T09:59:39.418Z,17.63
2018-02-15T10:02:06.971Z,18.93
2018-02-15T10:04:34.395Z,18.63
2018-02-15T10:07:01.820Z,18.53
2018-02-15T10:09:32.996Z,18.40
2018-02-15T10:12:03.662Z,19.27
2018-02-15T10:14:31.050Z,19.33
2018-02-15T10:16:58.438Z,19.00
2018-02-15T10:19:25.871Z,19.20
2018-02-15T10:21:53.317Z,19.07
2018-02-15T10:24:20.706Z,20.33
2018-02-15T10:26:48.225Z,20.10
2018-02-15T10:29:15.613Z,19.00
2018-02-15T10:31:43.006Z,18.03
2018-02-15T10:34:10.433Z,19.17
2018-02-15T10:36:37.838Z,20.77
2018-02-15T10:39:05.246Z,19.70
2018-02-15T10:41:32.658Z,18.57
2018-02-15T10:44:00.062Z,18.17
2018-02-15T10:46:27.486Z,18.40
2018-02-15T10:48:54.878Z,17.97
2018-02-15T10:51:22.286Z,18.30
2018-02-15T10:53:49.742Z,18.70
2018-02-15T10:56:17.133Z,18.57
2018-02-15T10:58:44.560Z,19.07
2018-02-15T11:01:17.733Z,18.10
2018-02-15T11:03:45.136Z,17.30
2018-02-15T11:06:12.538Z,17.53
2018-02-15T11:08:39.977Z,18.00
2018-02-15T11:11:07.362Z,17.80
2018-02-15T11:13:34.792Z,17.87
2018-02-15T11:16:02.206Z,18.67
2018-02-15T11:18:29.603Z,17.70
2018-02-15T11:20:57.167Z,19.23
2018-02-15T11:23:24.555Z,18.57
2018-02-15T11:25:51.943Z,18.40
2018-02-15T11:28:19.381Z,19.13
2018-02-15T11:30:46.769Z,18.33
2018-02-15T11:33:14.170Z,18.03
2018-02-15T11:35:41.581Z,17.57
2018-02-15T11:38:08.978Z,17.93
2018-02-15T11:40:36.418Z,17.93
2018-02-15T11:43:03.854Z,19.47
2018-02-15T11:45:31.332Z,19.40
2018-02-15T11:47:58.813Z,18.60
2018-02-15T11:50:26.374Z,19.47
2018-02-15T11:52:53.771Z,17.67
2018-02-15T11:55:21.174Z,20.43
2018-02-15T11:57:48.585Z,18.47
2018-02-15T12:00:15.975Z,19.77
2018-02-15T12:02:43.402Z,19.33
2018-02-15T12:05:10.796Z,18.97
2018-02-15T12:07:38.182Z,18.90
2018-02-15T12:10:05.622Z,19.73
2018-02-15T12:12:33.014Z,19.43
2018-02-15T12:15:00.533Z,18.30
2018-02-15T12:17:27.957Z,19.70
2018-02-15T12:19:55.451Z,18.30
2018-02-15T12:22:22.978Z,19.77
2018-02-15T12:24:50.419Z,21.63
2018-02-15T12:27:17.814Z,20.20
2018-02-15T12:29:45.210Z,21.27
2018-02-15T12:32:12.681Z,21.97
2018-02-15T12:34:40.074Z,20.40
2018-02-15T12:37:07.493Z,19.47
2018-02-15T12:39:34.921Z,20.87
2018-02-15T12:42:02.359Z,20.50
2018-02-15T12:44:29.750Z,19.40
2018-02-15T12:46:57.274Z,20.80
2018-02-15T12:49:24.663Z,22.97
2018-02-15T12:51:52.057Z,21.87
2018-02-15T12:54:19.489Z,22.70
2018-02-15T12:56:46.894Z,21.50
2018-02-15T12:59:14.324Z,23.30
2018-02-15T13:01:41.745Z,22.70
2018-02-15T13:04:09.161Z,21.40
2018-02-15T13:06:36.557Z,22.93
2018-02-15T13:09:04.073Z,21.60
2018-02-15T13:11:31.481Z,21.53
2018-02-15T13:13:58.890Z,21.83
2018-02-15T13:16:32.238Z,19.23
2018-02-15T13:19:05.635Z,20.57
2018-02-15T13:21:33.034Z,22.23
2018-02-15T13:24:00.437Z,22.23
2018-02-15T13:26:27.951Z,20.83
2018-02-15T13:28:55.344Z,22.63
2018-02-15T13:31:22.760Z,21.00
2018-02-15T13:33:50.291Z,21.37
2018-02-15T13:36:17.734Z,22.10
2018-02-15T13:38:45.130Z,20.50
2018-02-15T13:41:12.558Z,22.27
2018-02-15T13:43:39.946Z,22.67
2018-02-15T13:46:07.333Z,21.63
2018-02-15T13:48:34.745Z,20.90
2018-02-15T13:51:02.145Z,22.97
2018-02-15T13:53:29.533Z,22.27
2018-02-15T13:55:56.978Z,20.90
2018-02-15T13:58:24.365Z,21.33
2018-02-15T14:00:51.834Z,23.20
2018-02-15T14:03:19.293Z,23.07
2018-02-15T14:05:46.682Z,22.20
2018-02-15T14:08:14.094Z,23.03
2018-02-15T14:10:41.514Z,22.07
2018-02-15T14:13:12.601Z,23.03
2018-02-15T14:15:40.131Z,21.57
2018-02-15T14:18:07.589Z,20.67
2018-02-15T14:20:35.017Z,21.57
2018-02-15T14:23:02.422Z,22.77
2018-02-15T14:25:29.813Z,21.40
2018-02-15T14:27:57.254Z,22.30
2018-02-15T14:30:24.691Z,22.43
2018-02-15T14:32:52.085Z,22.23
2018-02-15T14:35:19.473Z,21.83
2018-02-15T14:37:47.401Z,22.10
2018-02-15T14:40:14.797Z,21.33
2018-02-15T14:42:42.261Z,23.60
2018-02-15T14:45:09.689Z,22.83
2018-02-15T14:47:37.173Z,23.70
2018-02-15T14:50:04.566Z,22.60
2018-02-15T14:52:32.006Z,23.10
2018-02-15T14:54:59.397Z,22.30
2018-02-15T14:57:26.794Z,21.80
2018-02-15T14:59:54.214Z,21.80
2018-02-15T15:02:21.601Z,22.07
2018-02-15T15:04:49.067Z,22.60
2018-02-15T15:07:16.510Z,21.03
2018-02-15T15:09:43.934Z,22.27
2018-02-15T15:12:11.365Z,22.60
2018-02-15T15:14:38.785Z,21.33
2018-02-15T15:17:06.178Z,22.60
2018-02-15T15:19:33.634Z,21.77
2018-02-15T15:22:01.050Z,21.50
2018-02-15T15:24:28.622Z,20.57
2018-02-15T15:26:56.013Z,21.37
2018-02-15T15:29:23.413Z,20.13
2018-02-15T15:31:50.846Z,20.47
2018-02-15T15:34:18.245Z,21.33
2018-02-15T15:36:45.702Z,22.53
2018-02-15T15:39:13.123Z,20.77
2018-02-15T15:41:40.542Z,22.73
2018-02-15T15:44:07.934Z,20.80
2018-02-15T15:46:35.359Z,20.13
2018-02-15T15:49:02.750Z,20.70
2018-02-15T15:51:30.177Z,21.20
2018-02-15T15:53:57.603Z,21.10
2018-02-15T15:56:25.050Z,21.10
2018-02-15T15:58:52.487Z,19.80
2018-02-15T16:01:19.963Z,20.57
2018-02-15T16:03:47.453Z,20.40
2018-02-15T16:06:14.981Z,19.30
2018-02-15T16:08:42.383Z,19.50
2018-02-15T16:11:09.784Z,18.37
2018-02-15T16:13:37.351Z,17.40
2018-02-15T16:16:04.811Z,18.80
2018-02-15T16:18:32.194Z,19.53
2018-02-15T16:20:59.595Z,18.47
2018-02-15T16:23:27.012Z,27.20
2018-02-15T16:25:54.417Z,19.97
2018-02-15T16:28:21.846Z,20.73
2018-02-15T16:30:49.268Z,18.60
2018-02-15T16:33:16.658Z,19.00
2018-02-15T16:35:44.089Z,18.60
2018-02-15T16:38:11.549Z,16.97
2018-02-15T16:40:38.936Z,18.20
2018-02-15T16:43:06.453Z,19.13
2018-02-15T16:45:33.855Z,19.73
2018-02-15T16:48:01.253Z,18.83
2018-02-15T16:50:28.694Z,21.53
2018-02-15T16:52:56.105Z,19.63
2018-02-15T16:55:23.519Z,19.00
2018-02-15T16:57:50.954Z,17.83
2018-02-15T17:00:18.389Z,18.70
2018-02-15T17:02:45.774Z,18.90
2018-02-15T17:05:13.240Z,17.70
2018-02-15T17:07:40.631Z,17.87
2018-02-15T17:10:08.030Z,18.47
2018-02-15T17:12:35.530Z,19.10
2018-02-15T17:15:06.674Z,18.43
2018-02-15T17:17:34.058Z,19.97
2018-02-15T17:20:01.487Z,21.57
2018-02-15T17:22:28.938Z,18.70
2018-02-15T17:24:56.329Z,19.80
2018-02-15T17:27:23.713Z,19.30
2018-02-15T17:29:51.141Z,19.27
2018-02-15T17:32:18.567Z,18.33
2018-02-15T17:34:46.125Z,17.77
2018-02-15T17:37:13.734Z,16.60
2018-02-15T17:39:41.136Z,19.13
2018-02-15T17:42:09.351Z,16.67
2018-02-15T17:44:36.786Z,17.13
2018-02-15T17:47:04.303Z,17.60
2018-02-15T17:49:31.756Z,17.43
2018-02-15T17:51:59.145Z,15.97
2018-02-15T17:54:26.672Z,15.33
2018-02-15T17:56:54.130Z,14.83
2018-02-15T17:59:21.538Z,15.63
2018-02-15T18:01:48.942Z,15.57
2018-02-15T18:04:16.373Z,15.30
2018-02-15T18:06:43.771Z,15.70
2018-02-15T18:09:11.169Z,16.23
2018-02-15T18:11:38.701Z,17.50
2018-02-15T18:14:06.091Z,16.70
2018-02-15T18:16:36.995Z,17.03
2018-02-15T18:19:04.433Z,16.60
2018-02-15T18:21:31.906Z,16.10
2018-02-15T18:23:59.346Z,17.57
2018-02-15T18:26:26.773Z,17.27
2018-02-15T18:28:54.166Z,20.20
2018-02-15T18:31:21.553Z,17.97
2018-02-15T18:33:48.973Z,18.73
2018-02-15T18:36:16.441Z,18.63
2018-02-15T18:38:43.861Z,18.03
2018-02-15T18:41:11.251Z,19.03
2018-02-15T18:43:38.650Z,16.80
2018-02-15T18:46:06.094Z,18.37
2018-02-15T18:48:33.485Z,19.17
2018-02-15T18:51:01.097Z,16.83
2018-02-15T18:53:28.527Z,18.10
2018-02-15T18:55:55.919Z,17.97
2018-02-15T18:58:23.525Z,16.50
2018-02-15T19:00:50.990Z,17.00
2018-02-15T19:03:18.387Z,17.57
2018-02-15T19:05:45.933Z,16.77
2018-02-15T19:08:13.386Z,17.03
2018-02-15T19:10:40.787Z,18.27
2018-02-15T19:13:08.222Z,16.63
2018-02-15T19:15:35.606Z,18.00
2018-02-15T19:18:03.110Z,17.53
2018-02-15T19:20:30.565Z,17.10
2018-02-15T19:22:58.021Z,17.53
2018-02-15T19:25:25.459Z,17.13
2018-02-15T19:27:52.906Z,17.93
2018-02-15T19:30:20.297Z,19.10
2018-02-15T19:32:47.755Z,18.40
2018-02-15T19:35:15.215Z,18.20
2018-02-15T19:37:42.664Z,17.80
2018-02-15T19:40:10.110Z,17.00
2018-02-15T19:42:37.579Z,17.27
2018-02-15T19:45:04.966Z,17.00
2018-02-15T19:47:32.563Z,18.10
2018-02-15T19:50:00.031Z,18.67
2018-02-15T19:52:27.437Z,17.17
2018-02-15T19:54:54.933Z,17.33
2018-02-15T19:57:22.329Z,18.97
2018-02-15T19:59:49.747Z,18.40
2018-02-15T20:02:17.181Z,18.30
2018-02-15T20:04:44.630Z,18.90
2018-02-15T20:07:12.117Z,18.60
2018-02-15T20:09:39.563Z,19.23
2018-02-15T20:12:06.955Z,17.97
2018-02-15T20:14:34.341Z,18.70
2018-02-15T20:17:01.875Z,17.80
2018-02-15T20:19:29.402Z,18.90
2018-02-15T20:21:56.894Z,18.07
2018-02-15T20:24:24.321Z,19.93
2018-02-15T20:26:57.507Z,19.90
2018-02-15T20:29:24.998Z,19.00
2018-02-15T20:31:52.418Z,18.53
2018-02-15T20:34:19.908Z,19.13
2018-02-15T20:36:47.339Z,18.60
2018-02-15T20:39:20.686Z,17.77
2018-02-15T20:41:48.191Z,19.00
2018-02-15T20:44:15.606Z,18.80
2018-02-15T20:46:42.998Z,18.67
2018-02-15T20:49:16.294Z,19.13
2018-02-15T20:51:49.691Z,17.70
2018-02-15T20:54:22.710Z,19.13
2018-02-15T20:56:50.118Z,19.77
2018-02-15T20:59:17.530Z,20.37
2018-02-15T21:01:44.957Z,18.80
2018-02-15T21:04:12.379Z,22.43
2018-02-15T21:06:39.789Z,21.43
2018-02-15T21:09:07.222Z,18.50
2018-02-15T21:11:34.619Z,20.07
2018-02-15T21:14:02.026Z,19.87
2018-02-15T21:16:29.454Z,18.60
2018-02-15T21:18:56.940Z,20.47
2018-02-15T21:21:24.328Z,19.63
2018-02-15T21:23:51.757Z,19.33
2018-02-15T21:26:19.150Z,22.17
2018-02-15T21:28:46.542Z,19.70
2018-02-15T21:31:13.974Z,20.50
2018-02-15T21:33:41.374Z,21.67
2018-02-15T21:36:08.794Z,20.17
2018-02-15T21:38:36.222Z,20.70
2018-02-15T21:41:03.626Z,19.50
2018-02-15T21:43:31.063Z,20.10
2018-02-15T21:45:58.506Z,20.13
2018-02-15T21:48:25.894Z,20.20
2018-02-15T21:50:53.290Z,19.57
2018-02-15T21:53:20.729Z,20.17
2018-02-15T21:55:48.115Z,18.60
2018-02-15T21:58:15.505Z,19.90
2018-02-15T22:00:42.991Z,20.03
2018-02-15T22:03:10.389Z,20.37
2018-02-15T22:05:37.785Z,21.07
2018-02-15T22:08:05.214Z,20.67
2018-02-15T22:10:32.616Z,19.03
2018-02-15T22:13:00.004Z,22.10
2018-02-15T22:15:27.442Z,22.57
2018-02-15T22:17:54.796Z,21.80
2018-02-15T22:20:22.158Z,21.23
2018-02-15T22:22:49.566Z,20.37
2018-02-15T22:25:16.929Z,20.77
2018-02-15T22:27:44.295Z,19.73
2018-02-15T22:30:11.702Z,19.87
2018-02-15T22:32:39.067Z,20.53
2018-02-15T22:35:06.421Z,21.83
2018-02-15T22:37:33.809Z,20.40
2018-02-15T22:40:01.186Z,22.00
2018-02-15T22:42:28.567Z,21.80
2018-02-15T22:44:55.968Z,21.70
2018-02-15T22:47:23.389Z,21.50
2018-02-15T22:49:50.777Z,22.20
2018-02-15T22:52:18.185Z,22.60
2018-02-15T22:54:45.548Z,21.80
2018-02-15T22:57:12.912Z,21.87
2018-02-15T22:59:40.318Z,22.60
2018-02-15T23:02:07.669Z,23.00
2018-02-15T23:04:35.026Z,22.23
2018-02-15T23:07:02.404Z,21.70
2018-02-15T23:09:29.763Z,23.23
2018-02-15T23:11:57.150Z,23.73
2018-02-15T23:14:24.576Z,21.63
2018-02-15T23:16:51.935Z,21.57
2018-02-15T23:19:19.295Z,22.57
2018-02-15T23:21:46.682Z,23.00
2018-02-15T23:24:14.048Z,22.73
2018-02-15T23:26:41.400Z,22.37
2018-02-15T23:29:08.813Z,23.00
2018-02-15T23:31:36.165Z,20.00
2018-02-15T23:34:03.565Z,21.73
2018-02-15T23:36:30.952Z,21.90
2018-02-15T23:38:58.312Z,21.77
2018-02-15T23:41:25.733Z,22.90
2018-02-15T23:43:53.090Z,21.53
2018-02-15T23:46:20.457Z,20.77
2018-02-15T23:48:47.847Z,22.10
2018-02-15T23:51:15.204Z,22.73
2018-02-15T23:53:42.564Z,21.80
2018-02-15T23:56:09.973Z,23.13
2018-02-15T23:58:37.337Z,21.40
